Terminal Aerodrome Forecast
Issued by NWS

Home | Current Version | Previous Version | Text Only | Print | Product List | Glossary Off
Versions: 1 2 3 4 5 6 7 8 9 10 11 12 13 14 15 16 17 18 19

786
FTUS43 KOAX 230648 AAA
TAFCDR
TAF AMD
KCDR 230648Z 2307/2406 18011G20KT P6SM VCSH SCT050 BKN150
     FM230900 18006KT P6SM FEW250
     FM231700 31011KT P6SM FEW250
     FM232000 34011KT P6SM SKC
     FM240300 VRB03KT P6SM SKC=

USA.gov is the U.S. government's official web portal to all federal, state and local government web resources and services.